createdAt,value
2018-05-27T00:00:58.720Z,54.02
2018-05-27T00:03:25.106Z,54.49
2018-05-27T00:05:51.486Z,54.42
2018-05-27T00:08:17.801Z,54.65
2018-05-27T00:10:44.423Z,54.88
2018-05-27T00:13:11.060Z,55.42
2018-05-27T00:15:37.510Z,54.86
2018-05-27T00:18:03.924Z,55.25
2018-05-27T00:20:30.247Z,55.10
2018-05-27T00:22:56.585Z,55.77
2018-05-27T00:25:22.919Z,55.42
2018-05-27T00:27:49.350Z,55.58
2018-05-27T00:30:15.677Z,55.59
2018-05-27T00:32:42.010Z,55.89
2018-05-27T00:35:08.333Z,55.89
2018-05-27T00:37:34.717Z,55.80
2018-05-27T00:40:01.088Z,55.72
2018-05-27T00:42:27.556Z,55.56
2018-05-27T00:44:53.877Z,56.37
2018-05-27T00:47:20.241Z,56.59
2018-05-27T00:49:46.587Z,55.98
2018-05-27T00:52:13.021Z,55.80
2018-05-27T00:54:40.107Z,56.05
2018-05-27T00:57:06.529Z,56.39
2018-05-27T00:59:32.815Z,56.50
2018-05-27T01:01:59.862Z,56.41
2018-05-27T01:04:26.331Z,57.04
2018-05-27T01:06:52.933Z,56.33
2018-05-27T01:09:20.025Z,56.88
2018-05-27T01:11:46.348Z,56.39
2018-05-27T01:14:12.743Z,56.58
2018-05-27T01:16:39.084Z,56.55
2018-05-27T01:19:06.228Z,56.36
2018-05-27T01:21:33.318Z,56.81
2018-05-27T01:23:59.767Z,56.74
2018-05-27T01:26:26.084Z,56.21
2018-05-27T01:28:52.454Z,56.50
2018-05-27T01:31:18.833Z,56.05
2018-05-27T01:33:45.161Z,56.37
2018-05-27T01:36:12.012Z,56.60
2018-05-27T01:38:38.347Z,56.39
2018-05-27T01:41:04.770Z,56.21
2018-05-27T01:43:31.120Z,56.28
2018-05-27T01:45:58.307Z,57.07
2018-05-27T01:48:25.352Z,56.48
2018-05-27T01:50:52.447Z,56.62
2018-05-27T01:53:18.785Z,56.31
2018-05-27T01:55:45.191Z,56.71
2018-05-27T01:58:11.498Z,56.46
2018-05-27T02:00:38.537Z,56.83
2018-05-27T02:03:05.750Z,56.53
2018-05-27T02:05:32.124Z,56.95
2018-05-27T02:07:59.215Z,56.18
2018-05-27T02:10:25.559Z,56.32
2018-05-27T02:12:51.952Z,56.48
2018-05-27T02:15:18.280Z,56.28
2018-05-27T02:17:44.631Z,55.74
2018-05-27T02:20:10.974Z,55.90
2018-05-27T02:22:37.351Z,55.67
2018-05-27T02:25:04.403Z,56.48
2018-05-27T02:27:31.470Z,55.58
2018-05-27T02:29:57.814Z,55.65
2018-05-27T02:32:24.299Z,55.42
2018-05-27T02:34:50.898Z,55.11
2018-05-27T02:37:17.821Z,55.25
2018-05-27T02:39:44.180Z,55.04
2018-05-27T02:42:11.255Z,55.36
2018-05-27T02:44:38.343Z,55.45
2018-05-27T02:47:04.697Z,55.06
2018-05-27T02:49:31.841Z,54.50
2018-05-27T02:51:58.244Z,54.46
2018-05-27T02:54:24.830Z,54.71
2018-05-27T02:56:51.204Z,54.90
2018-05-27T02:59:17.550Z,55.32
2018-05-27T03:01:43.861Z,55.37
2018-05-27T03:04:10.376Z,55.79
2018-05-27T03:06:37.491Z,55.67
2018-05-27T03:09:04.645Z,56.92
2018-05-27T03:11:30.971Z,57.92
2018-05-27T03:13:57.368Z,57.49
2018-05-27T03:16:23.692Z,58.51
2018-05-27T03:18:50.024Z,59.63
2018-05-27T03:21:16.372Z,60.71
2018-05-27T03:23:42.721Z,61.15
2018-05-27T03:26:09.062Z,61.97
2018-05-27T03:28:35.466Z,62.20
2018-05-27T03:31:02.051Z,62.04
2018-05-27T03:33:29.081Z,62.95
2018-05-27T03:35:56.177Z,63.26
2018-05-27T03:38:22.972Z,64.36
2018-05-27T03:40:49.285Z,65.13
2018-05-27T03:43:15.629Z,65.61
2018-05-27T03:45:42.777Z,65.68
2018-05-27T03:48:09.274Z,66.26
2018-05-27T03:50:35.637Z,66.72
2018-05-27T03:53:01.966Z,66.43
2018-05-27T03:55:28.354Z,66.57
2018-05-27T03:57:54.728Z,67.22
2018-05-27T04:00:21.093Z,67.11
2018-05-27T04:02:47.463Z,66.89
2018-05-27T04:05:32.215Z,66.51
2018-05-27T04:08:18.614Z,68.02
2018-05-27T04:10:44.943Z,68.20
2018-05-27T04:13:11.308Z,68.87
2018-05-27T04:15:37.602Z,68.99
2018-05-27T04:18:03.971Z,69.87
2018-05-27T04:20:30.275Z,69.70
2018-05-27T04:22:56.600Z,70.02
2018-05-27T04:25:22.961Z,70.98
2018-05-27T04:27:49.368Z,72.12
2018-05-27T04:30:15.727Z,72.18
2018-05-27T04:32:42.178Z,71.39
2018-05-27T04:35:09.387Z,72.67
2018-05-27T04:37:35.755Z,74.17
2018-05-27T04:40:02.839Z,74.21
2018-05-27T04:42:29.195Z,73.28
2018-05-27T04:44:55.501Z,73.93
2018-05-27T04:47:21.834Z,74.93
2018-05-27T04:49:48.186Z,75.22
2018-05-27T04:52:14.512Z,75.71
2018-05-27T04:54:40.826Z,75.95
2018-05-27T04:57:07.133Z,77.14
2018-05-27T04:59:33.528Z,77.64
2018-05-27T05:02:00.661Z,76.58
2018-05-27T05:04:27.019Z,76.88
2018-05-27T05:06:54.159Z,75.48
2018-05-27T05:09:21.303Z,76.59
2018-05-27T05:11:48.410Z,77.43
2018-05-27T05:14:14.775Z,77.28
2018-05-27T05:16:41.082Z,76.61
2018-05-27T05:19:07.409Z,75.24
2018-05-27T05:21:33.871Z,75.44
2018-05-27T05:24:01.138Z,75.76
2018-05-27T05:26:27.572Z,75.94
2018-05-27T05:28:53.962Z,75.23
2018-05-27T05:31:20.391Z,73.68
2018-05-27T05:33:46.796Z,73.66
2018-05-27T05:36:13.175Z,72.04
2018-05-27T05:38:40.345Z,71.22
2018-05-27T05:41:07.635Z,69.83
2018-05-27T05:43:34.278Z,64.27
2018-05-27T05:46:00.697Z,64.43
2018-05-27T05:48:27.102Z,60.32
2018-05-27T05:50:53.641Z,54.69
2018-05-27T05:53:19.976Z,54.48
2018-05-27T05:55:46.425Z,49.98
2018-05-27T05:58:12.992Z,50.59
2018-05-27T06:00:39.363Z,49.91
2018-05-27T06:03:06.503Z,52.10
2018-05-27T06:05:33.730Z,48.68
2018-05-27T06:08:00.227Z,47.63
2018-05-27T06:10:26.698Z,45.92
2018-05-27T06:12:53.181Z,48.80
2018-05-27T06:15:19.623Z,47.07
2018-05-27T06:17:46.171Z,45.63
2018-05-27T06:20:12.551Z,46.66
2018-05-27T06:22:39.745Z,47.86
2018-05-27T06:25:06.242Z,46.47
2018-05-27T06:27:32.796Z,44.55
2018-05-27T06:29:59.228Z,45.38
2018-05-27T06:32:25.696Z,44.59
2018-05-27T06:34:52.102Z,43.84
2018-05-27T06:37:18.542Z,44.21
2018-05-27T06:39:45.093Z,48.27
2018-05-27T06:42:11.497Z,45.05
2018-05-27T06:44:37.995Z,41.87
2018-05-27T06:47:04.530Z,42.11
2018-05-27T06:49:31.708Z,43.88
2018-05-27T06:51:58.117Z,39.02
2018-05-27T06:54:25.233Z,38.73
2018-05-27T06:56:51.623Z,41.27
2018-05-27T06:59:17.998Z,44.71
2018-05-27T07:01:44.408Z,43.76
2018-05-27T07:04:10.888Z,41.31
2018-05-27T07:06:38.077Z,39.94
2018-05-27T07:09:04.707Z,41.74
2018-05-27T07:11:31.040Z,39.21
2018-05-27T07:13:57.464Z,42.23
2018-05-27T07:16:24.025Z,42.70
2018-05-27T07:18:50.401Z,44.86
2018-05-27T07:21:16.828Z,47.76
2018-05-27T07:23:44.024Z,47.26
2018-05-27T07:26:10.416Z,48.05
2018-05-27T07:28:36.740Z,46.51
2018-05-27T07:31:03.164Z,49.25
2018-05-27T07:33:30.280Z,50.34
2018-05-27T07:35:56.679Z,49.70
2018-05-27T07:38:23.146Z,49.31
2018-05-27T07:40:49.523Z,49.10
2018-05-27T07:43:16.773Z,49.12
2018-05-27T07:45:44.057Z,48.80
2018-05-27T07:48:10.429Z,49.60
2018-05-27T07:50:36.838Z,49.31
2018-05-27T07:53:03.245Z,49.88
2018-05-27T07:55:29.653Z,49.61
2018-05-27T07:57:56.083Z,49.07
2018-05-27T08:00:22.469Z,49.42
2018-05-27T08:02:48.943Z,49.41
2018-05-27T08:05:16.123Z,49.59
2018-05-27T08:07:42.560Z,50.34
2018-05-27T08:10:08.981Z,50.55
2018-05-27T08:12:35.421Z,50.08
2018-05-27T08:15:01.858Z,49.79
2018-05-27T08:17:28.524Z,51.27
2018-05-27T08:19:55.111Z,49.68
2018-05-27T08:22:21.543Z,49.21
2018-05-27T08:24:47.990Z,47.89
2018-05-27T08:27:14.400Z,46.99
2018-05-27T08:29:40.946Z,46.68
2018-05-27T08:32:07.433Z,47.61
2018-05-27T08:34:33.833Z,46.64
2018-05-27T08:37:00.261Z,47.92
2018-05-27T08:39:26.829Z,49.47
2018-05-27T08:41:53.426Z,47.92
2018-05-27T08:44:19.982Z,49.93
2018-05-27T08:46:46.530Z,49.05
2018-05-27T08:49:13.030Z,47.92
2018-05-27T08:51:43.969Z,48.28
2018-05-27T08:54:10.514Z,48.71
2018-05-27T08:56:36.896Z,46.60
2018-05-27T08:59:04.194Z,44.81
2018-05-27T09:01:30.904Z,46.22
2018-05-27T09:03:57.471Z,48.13
2018-05-27T09:06:23.907Z,47.69
2018-05-27T09:08:50.556Z,47.73
2018-05-27T09:11:17.123Z,47.91
2018-05-27T09:13:44.326Z,47.57
2018-05-27T09:16:10.777Z,45.10
2018-05-27T09:18:37.289Z,44.20
2018-05-27T09:21:04.026Z,44.12
2018-05-27T09:23:31.149Z,44.29
2018-05-27T09:25:57.683Z,45.95
2018-05-27T09:28:24.287Z,47.16
2018-05-27T09:30:50.987Z,46.42
2018-05-27T09:33:17.403Z,48.32
2018-05-27T09:35:50.880Z,47.01
2018-05-27T09:38:17.553Z,46.57
2018-05-27T09:40:44.285Z,45.44
2018-05-27T09:43:10.875Z,44.49
2018-05-27T09:45:39.036Z,42.70
2018-05-27T09:48:05.795Z,44.63
2018-05-27T09:50:32.681Z,45.24
2018-05-27T09:52:59.129Z,43.60
2018-05-27T09:55:25.639Z,44.44
2018-05-27T09:58:08.565Z,43.36
2018-05-27T10:00:36.169Z,41.21
2018-05-27T10:03:03.356Z,42.42
2018-05-27T10:05:30.061Z,40.10
2018-05-27T10:07:56.446Z,37.99
2018-05-27T10:10:22.992Z,39.80
2018-05-27T10:12:49.456Z,38.87
2018-05-27T10:15:15.895Z,38.08
2018-05-27T10:17:43.003Z,39.12
2018-05-27T10:20:09.543Z,39.23
2018-05-27T10:22:36.503Z,40.72
2018-05-27T10:25:03.822Z,39.69
2018-05-27T10:27:30.423Z,38.31
2018-05-27T10:29:56.974Z,40.13
2018-05-27T10:32:27.763Z,39.89
2018-05-27T10:34:55.180Z,40.08
2018-05-27T10:37:21.696Z,38.81
2018-05-27T10:39:48.268Z,37.81
2018-05-27T10:42:15.589Z,35.05
2018-05-27T10:44:42.119Z,36.59
2018-05-27T10:47:08.861Z,36.61
2018-05-27T10:49:35.319Z,36.97
2018-05-27T10:52:01.965Z,35.32
2018-05-27T10:54:28.422Z,33.83
2018-05-27T10:56:55.722Z,35.64
2018-05-27T10:59:22.448Z,36.27
2018-05-27T11:01:48.863Z,37.86
2018-05-27T11:04:15.320Z,38.78
2018-05-27T11:06:42.013Z,37.43
2018-05-27T11:09:09.300Z,37.61
2018-05-27T11:11:36.848Z,37.56
2018-05-27T11:14:03.257Z,38.11
2018-05-27T11:16:30.652Z,37.36
2018-05-27T11:18:57.923Z,38.40
2018-05-27T11:21:24.427Z,40.10
2018-05-27T11:23:50.974Z,38.44
2018-05-27T11:26:17.502Z,36.73
2018-05-27T11:28:43.971Z,37.65
2018-05-27T11:31:10.584Z,36.88
2018-05-27T11:33:37.084Z,35.99
2018-05-27T11:36:03.511Z,36.48
2018-05-27T11:38:29.985Z,35.72
2018-05-27T11:40:56.595Z,37.69
2018-05-27T11:43:23.148Z,36.31
2018-05-27T11:45:49.581Z,36.00
2018-05-27T11:48:16.111Z,36.06
2018-05-27T11:50:42.587Z,35.55
2018-05-27T11:53:09.027Z,35.11
2018-05-27T11:55:35.441Z,35.06
2018-05-27T11:58:02.070Z,35.05
2018-05-27T12:00:28.470Z,35.88
2018-05-27T12:02:54.821Z,36.85
2018-05-27T12:05:21.233Z,35.88
2018-05-27T12:07:47.729Z,35.21
2018-05-27T12:10:14.929Z,34.65
2018-05-27T12:12:41.456Z,34.16
2018-05-27T12:15:07.990Z,35.40
2018-05-27T12:17:34.420Z,34.81
2018-05-27T12:20:00.997Z,34.17
2018-05-27T12:22:27.495Z,35.36
2018-05-27T12:24:53.979Z,36.76
2018-05-27T12:27:21.287Z,34.09
2018-05-27T12:29:47.705Z,35.41
2018-05-27T12:32:14.119Z,34.46
2018-05-27T12:34:40.528Z,35.01
2018-05-27T12:37:07.698Z,35.19
2018-05-27T12:39:34.329Z,37.11
2018-05-27T12:42:01.075Z,35.13
2018-05-27T12:44:27.531Z,38.21
2018-05-27T12:46:54.082Z,35.96
2018-05-27T12:49:20.685Z,35.72
2018-05-27T12:51:47.140Z,35.18
2018-05-27T12:54:13.670Z,35.90
2018-05-27T12:56:40.261Z,35.78
2018-05-27T12:59:06.759Z,39.01
2018-05-27T13:01:33.274Z,36.79
2018-05-27T13:03:59.885Z,37.88
2018-05-27T13:06:26.351Z,36.20
2018-05-27T13:08:52.785Z,36.78
2018-05-27T13:11:19.235Z,35.24
2018-05-27T13:13:45.713Z,36.55
2018-05-27T13:16:12.238Z,37.37
2018-05-27T13:18:38.812Z,37.21
2018-05-27T13:21:05.261Z,36.64
2018-05-27T13:23:31.885Z,38.16
2018-05-27T13:25:58.318Z,37.05
2018-05-27T13:28:24.816Z,37.84
2018-05-27T13:30:51.188Z,37.25
2018-05-27T13:33:17.628Z,39.11
2018-05-27T13:35:44.037Z,40.04
2018-05-27T13:38:10.477Z,38.10
2018-05-27T13:40:36.918Z,38.04
2018-05-27T13:43:03.336Z,37.64
2018-05-27T13:45:29.688Z,38.53
2018-05-27T13:47:56.029Z,40.24
2018-05-27T13:50:22.428Z,42.11
2018-05-27T13:52:48.829Z,42.46
2018-05-27T13:55:15.287Z,42.73
2018-05-27T13:57:42.350Z,44.58
2018-05-27T14:00:08.761Z,44.89
2018-05-27T14:02:35.058Z,45.37
2018-05-27T14:05:02.197Z,46.39
2018-05-27T14:07:28.581Z,45.00
2018-05-27T14:09:54.911Z,47.13
2018-05-27T14:12:21.532Z,48.95
2018-05-27T14:14:47.879Z,49.82
2018-05-27T14:17:14.349Z,50.87
2018-05-27T14:19:40.713Z,51.83
2018-05-27T14:24:40.274Z,52.11
2018-05-27T14:27:06.805Z,51.95
2018-05-27T14:29:33.241Z,52.26
2018-05-27T14:31:59.677Z,52.08
2018-05-27T14:34:26.110Z,52.22
2018-05-27T14:36:52.506Z,52.97
2018-05-27T14:39:19.037Z,53.42
2018-05-27T14:41:45.584Z,53.39
2018-05-27T14:44:11.940Z,54.39
2018-05-27T14:46:38.313Z,54.31
2018-05-27T14:49:04.784Z,53.87
2018-05-27T14:51:31.246Z,54.33
2018-05-27T14:53:57.634Z,54.34
2018-05-27T14:56:24.123Z,53.76
2018-05-27T14:58:54.937Z,55.52
2018-05-27T15:01:21.355Z,55.91
2018-05-27T15:03:47.766Z,56.66
2018-05-27T15:06:14.270Z,56.84
2018-05-27T15:08:41.321Z,56.03
2018-05-27T15:11:07.754Z,56.63
2018-05-27T15:13:34.874Z,56.98
2018-05-27T15:16:01.211Z,57.75
2018-05-27T15:18:27.624Z,56.75
2018-05-27T15:20:54.022Z,58.75
2018-05-27T15:23:20.351Z,58.63
2018-05-27T15:25:46.749Z,59.31
2018-05-27T15:28:13.833Z,60.52
2018-05-27T15:30:40.226Z,59.33
2018-05-27T15:33:07.354Z,59.62
2018-05-27T15:35:33.673Z,58.68
2018-05-27T15:38:00.035Z,59.70
2018-05-27T15:40:27.173Z,59.48
2018-05-27T15:42:54.377Z,58.48
2018-05-27T15:45:20.732Z,58.42
2018-05-27T15:47:47.171Z,58.68
2018-05-27T15:50:13.564Z,57.98
2018-05-27T15:52:40.060Z,57.67
2018-05-27T15:55:06.417Z,58.91
2018-05-27T15:57:32.812Z,59.98
2018-05-27T16:00:00.027Z,60.40
2018-05-27T16:02:26.498Z,61.34
2018-05-27T16:04:53.712Z,61.31
2018-05-27T16:07:20.853Z,60.70
2018-05-27T16:09:48.072Z,61.28
2018-05-27T16:12:14.483Z,62.45
2018-05-27T16:14:41.683Z,62.18
2018-05-27T16:17:08.234Z,63.23
2018-05-27T16:19:35.262Z,64.60
2018-05-27T16:22:01.756Z,65.53
2018-05-27T16:24:28.832Z,65.60
2018-05-27T16:26:55.264Z,64.74
2018-05-27T16:29:22.683Z,63.26
2018-05-27T16:31:49.875Z,63.54
2018-05-27T16:34:16.238Z,63.72
2018-05-27T16:36:42.746Z,64.83
2018-05-27T16:39:09.257Z,64.50
2018-05-27T16:41:35.690Z,65.34
2018-05-27T16:44:02.097Z,65.47
2018-05-27T16:46:29.258Z,64.15
2018-05-27T16:48:55.680Z,63.73
2018-05-27T16:51:22.896Z,65.58
2018-05-27T16:53:49.417Z,66.30
2018-05-27T16:56:15.793Z,64.13
2018-05-27T16:58:43.006Z,64.14
2018-05-27T17:01:10.067Z,64.74
2018-05-27T17:03:36.451Z,63.53
2018-05-27T17:06:02.956Z,65.36
2018-05-27T17:08:30.122Z,63.83
2018-05-27T17:10:56.530Z,64.15
2018-05-27T17:13:23.709Z,64.86
2018-05-27T17:15:50.295Z,64.45
2018-05-27T17:18:17.502Z,65.77
2018-05-27T17:20:43.828Z,66.91
2018-05-27T17:23:10.218Z,65.74
2018-05-27T17:25:37.426Z,66.19
2018-05-27T17:28:03.898Z,67.17
2018-05-27T17:30:31.015Z,67.14
2018-05-27T17:32:57.728Z,67.32
2018-05-27T17:35:24.151Z,66.57
2018-05-27T17:37:50.567Z,64.68
2018-05-27T17:40:17.756Z,64.32
2018-05-27T17:42:44.123Z,64.02
2018-05-27T17:45:10.585Z,64.78
2018-05-27T17:47:37.062Z,64.03
2018-05-27T17:50:03.469Z,61.15
2018-05-27T17:52:29.910Z,59.00
2018-05-27T17:54:56.236Z,58.60
2018-05-27T17:57:22.611Z,60.11
2018-05-27T17:59:48.994Z,61.42
2018-05-27T18:02:15.490Z,62.44
2018-05-27T18:04:42.661Z,62.76
2018-05-27T18:07:09.244Z,62.48
2018-05-27T18:09:35.590Z,60.98
2018-05-27T18:12:02.069Z,63.11
2018-05-27T18:14:28.626Z,66.51
2018-05-27T18:16:54.965Z,67.35
2018-05-27T18:19:21.325Z,66.66
2018-05-27T18:21:48.535Z,69.45
2018-05-27T18:24:15.136Z,68.38
2018-05-27T18:26:41.530Z,68.15
2018-05-27T18:29:07.916Z,68.23
2018-05-27T18:31:34.291Z,68.02
2018-05-27T18:34:00.804Z,68.05
2018-05-27T18:36:27.204Z,65.66
2018-05-27T18:38:53.633Z,66.00
2018-05-27T18:41:20.033Z,62.87
2018-05-27T18:43:46.630Z,62.35
2018-05-27T18:46:13.117Z,62.15
2018-05-27T18:48:40.322Z,63.26
2018-05-27T18:51:06.900Z,63.97
2018-05-27T18:53:34.234Z,65.50
2018-05-27T18:56:00.675Z,65.87
2018-05-27T18:58:27.792Z,64.74
2018-05-27T19:00:54.159Z,64.97
2018-05-27T19:03:21.305Z,65.71
2018-05-27T19:05:48.599Z,67.17
2018-05-27T19:08:15.004Z,67.98
2018-05-27T19:10:41.782Z,68.43
2018-05-27T19:13:08.234Z,68.98
2018-05-27T19:15:35.215Z,70.05
2018-05-27T19:18:01.631Z,69.98
2018-05-27T19:20:27.969Z,69.62
2018-05-27T19:22:55.147Z,70.50
2018-05-27T19:25:21.622Z,71.05
2018-05-27T19:27:47.995Z,70.91
2018-05-27T19:30:14.385Z,71.14
2018-05-27T19:32:40.981Z,69.94
2018-05-27T19:35:07.432Z,70.02
2018-05-27T19:37:33.961Z,70.92
2018-05-27T19:40:00.461Z,70.88
2018-05-27T19:42:26.973Z,69.92
2018-05-27T19:44:53.627Z,69.63
2018-05-27T19:47:20.781Z,70.40
2018-05-27T19:49:47.359Z,70.44
2018-05-27T19:52:13.799Z,71.00
2018-05-27T19:54:40.835Z,70.28
2018-05-27T19:57:07.250Z,70.51
2018-05-27T19:59:33.781Z,70.80
2018-05-27T20:02:00.167Z,71.28
2018-05-27T20:04:26.571Z,71.10
2018-05-27T20:06:54.758Z,71.42
2018-05-27T20:09:21.538Z,71.55
2018-05-27T20:11:47.946Z,71.85
2018-05-27T20:14:14.385Z,72.22
2018-05-27T20:16:41.070Z,71.73
2018-05-27T20:19:07.803Z,71.95
2018-05-27T20:21:35.384Z,72.25
2018-05-27T20:24:01.940Z,72.33
2018-05-27T20:26:29.163Z,72.91
2018-05-27T20:28:55.857Z,73.17
2018-05-27T20:31:22.276Z,72.72
2018-05-27T20:33:49.388Z,72.01
2018-05-27T20:36:15.725Z,72.19
2018-05-27T20:38:42.602Z,72.09
2018-05-27T20:41:09.078Z,72.32
2018-05-27T20:43:35.499Z,72.40
2018-05-27T20:46:01.938Z,73.24
2018-05-27T20:48:28.312Z,73.36
2018-05-27T20:50:54.619Z,72.56
2018-05-27T20:53:20.991Z,72.13
2018-05-27T20:55:48.069Z,71.27
2018-05-27T20:58:14.467Z,71.68
2018-05-27T21:00:41.581Z,72.27
2018-05-27T21:03:07.991Z,72.44
2018-05-27T21:05:34.327Z,72.83
2018-05-27T21:08:00.667Z,72.17
2018-05-27T21:10:27.243Z,72.02
2018-05-27T21:12:54.319Z,72.16
2018-05-27T21:15:20.680Z,72.23
2018-05-27T21:17:47.032Z,72.20
2018-05-27T21:20:13.407Z,72.59
2018-05-27T21:22:39.712Z,72.38
2018-05-27T21:25:06.795Z,73.35
2018-05-27T21:27:33.154Z,74.23
2018-05-27T21:29:59.561Z,74.53
2018-05-27T21:32:25.998Z,74.90
2018-05-27T21:34:52.331Z,75.18
2018-05-27T21:37:18.815Z,74.99
2018-05-27T21:39:46.396Z,74.95
2018-05-27T21:42:12.750Z,75.55
2018-05-27T21:44:39.077Z,75.63
2018-05-27T21:47:05.447Z,75.69
2018-05-27T21:49:32.612Z,74.05
2018-05-27T21:51:59.718Z,73.29
2018-05-27T21:54:26.091Z,72.99
2018-05-27T21:56:53.186Z,74.16
2018-05-27T21:59:19.557Z,74.59
2018-05-27T22:01:46.655Z,74.67
2018-05-27T22:04:13.000Z,75.00
2018-05-27T22:06:39.494Z,75.08
2018-05-27T22:09:05.901Z,76.16
2018-05-27T22:11:33.008Z,75.55
2018-05-27T22:13:59.381Z,75.56
2018-05-27T22:16:26.540Z,75.80
2018-05-27T22:18:53.710Z,75.68
2018-05-27T22:21:20.052Z,76.61
2018-05-27T22:23:46.394Z,76.76
2018-05-27T22:26:12.732Z,76.99
2018-05-27T22:28:39.880Z,77.52
2018-05-27T22:31:06.310Z,77.42
2018-05-27T22:33:32.685Z,77.33
2018-05-27T22:35:59.807Z,77.70
2018-05-27T22:38:26.154Z,78.18
2018-05-27T22:40:53.537Z,78.11
2018-05-27T22:43:19.874Z,78.93
2018-05-27T22:45:46.179Z,79.13
2018-05-27T22:48:13.227Z,79.17
2018-05-27T22:50:39.658Z,79.17
2018-05-27T22:53:06.025Z,79.17
2018-05-27T22:55:32.490Z,78.49
2018-05-27T22:57:58.897Z,78.65
2018-05-27T23:00:25.302Z,78.04
2018-05-27T23:02:51.615Z,77.43
2018-05-27T23:05:17.966Z,78.02
2018-05-27T23:07:44.294Z,77.01
2018-05-27T23:10:10.624Z,76.67
2018-05-27T23:12:36.953Z,76.70
2018-05-27T23:15:03.324Z,76.32
2018-05-27T23:17:29.697Z,76.63
2018-05-27T23:19:56.045Z,77.04
2018-05-27T23:22:22.392Z,77.29
2018-05-27T23:24:48.761Z,77.00
2018-05-27T23:27:15.164Z,77.35
2018-05-27T23:29:41.541Z,77.29
2018-05-27T23:32:07.897Z,78.15
2018-05-27T23:34:34.235Z,77.85
2018-05-27T23:37:00.683Z,77.94
2018-05-27T23:39:26.987Z,79.21
2018-05-27T23:41:53.420Z,79.63
2018-05-27T23:44:19.727Z,80.02
2018-05-27T23:46:46.852Z,80.15
2018-05-27T23:49:13.961Z,80.98
2018-05-27T23:51:40.265Z,81.07
2018-05-27T23:54:06.598Z,81.88
2018-05-27T23:56:32.911Z,81.45
2018-05-27T23:58:59.238Z,82.50
